sensor_id;sensor_type;location;lat;lon;timestamp;P1;durP1;ratioP1;P2;durP2;ratioP2
64619;SDS011;51029;51.058;13.826;2024-02-23T00:01:49;2.17;;;1.77;;
64619;SDS011;51029;51.058;13.826;2024-02-23T00:04:15;2.10;;;2.00;;
64619;SDS011;51029;51.058;13.826;2024-02-23T00:06:43;2.20;;;2.00;;
64619;SDS011;51029;51.058;13.826;2024-02-23T00:09:09;2.93;;;2.33;;
64619;SDS011;51029;51.058;13.826;2024-02-23T00:11:35;2.53;;;2.27;;
64619;SDS011;51029;51.058;13.826;2024-02-23T00:14:06;2.50;;;2.30;;
64619;SDS011;51029;51.058;13.826;2024-02-23T00:16:37;3.20;;;2.40;;
64619;SDS011;51029;51.058;13.826;2024-02-23T00:19:03;3.07;;;2.77;;
64619;SDS011;51029;51.058;13.826;2024-02-23T00:21:29;2.77;;;2.57;;
64619;SDS011;51029;51.058;13.826;2024-02-23T00:23:55;2.60;;;2.43;;
64619;SDS011;51029;51.058;13.826;2024-02-23T00:26:21;2.83;;;2.50;;
64619;SDS011;51029;51.058;13.826;2024-02-23T00:28:47;2.87;;;2.67;;
64619;SDS011;51029;51.058;13.826;2024-02-23T00:31:12;2.00;;;1.90;;
64619;SDS011;51029;51.058;13.826;2024-02-23T00:33:38;2.23;;;2.03;;
64619;SDS011;51029;51.058;13.826;2024-02-23T00:36:07;2.10;;;2.00;;
64619;SDS011;51029;51.058;13.826;2024-02-23T00:38:33;3.47;;;2.30;;
64619;SDS011;51029;51.058;13.826;2024-02-23T00:40:59;3.27;;;2.40;;
64619;SDS011;51029;51.058;13.826;2024-02-23T00:43:24;2.40;;;2.20;;
64619;SDS011;51029;51.058;13.826;2024-02-23T00:45:50;4.23;;;2.30;;
64619;SDS011;51029;51.058;13.826;2024-02-23T00:48:16;2.23;;;2.13;;
64619;SDS011;51029;51.058;13.826;2024-02-23T00:50:42;2.27;;;2.03;;
64619;SDS011;51029;51.058;13.826;2024-02-23T00:53:09;2.07;;;1.80;;
64619;SDS011;51029;51.058;13.826;2024-02-23T00:55:35;1.80;;;1.70;;
64619;SDS011;51029;51.058;13.826;2024-02-23T00:58:01;2.87;;;1.80;;
64619;SDS011;51029;51.058;13.826;2024-02-23T01:00:28;1.50;;;1.40;;
64619;SDS011;51029;51.058;13.826;2024-02-23T01:02:54;1.90;;;1.80;;
64619;SDS011;51029;51.058;13.826;2024-02-23T01:05:20;1.73;;;1.63;;
64619;SDS011;51029;51.058;13.826;2024-02-23T01:07:46;1.80;;;1.50;;
64619;SDS011;51029;51.058;13.826;2024-02-23T01:10:13;1.50;;;1.40;;
64619;SDS011;51029;51.058;13.826;2024-02-23T01:12:39;2.20;;;1.53;;
64619;SDS011;51029;51.058;13.826;2024-02-23T01:15:05;1.60;;;1.50;;
64619;SDS011;51029;51.058;13.826;2024-02-23T01:17:31;1.60;;;1.50;;
64619;SDS011;51029;51.058;13.826;2024-02-23T01:19:56;1.63;;;1.53;;
64619;SDS011;51029;51.058;13.826;2024-02-23T01:22:22;5.30;;;1.60;;
64619;SDS011;51029;51.058;13.826;2024-02-23T01:24:48;1.80;;;1.70;;
64619;SDS011;51029;51.058;13.826;2024-02-23T01:27:14;1.60;;;1.50;;
64619;SDS011;51029;51.058;13.826;2024-02-23T01:29:40;1.60;;;1.50;;
64619;SDS011;51029;51.058;13.826;2024-02-23T01:32:06;1.43;;;1.33;;
64619;SDS011;51029;51.058;13.826;2024-02-23T01:34:32;0.87;;;0.87;;
64619;SDS011;51029;51.058;13.826;2024-02-23T01:36:59;1.57;;;0.80;;
64619;SDS011;51029;51.058;13.826;2024-02-23T01:39:24;0.87;;;0.87;;
64619;SDS011;51029;51.058;13.826;2024-02-23T01:41:50;0.80;;;0.80;;
64619;SDS011;51029;51.058;13.826;2024-02-23T01:44:16;3.80;;;0.87;;
64619;SDS011;51029;51.058;13.826;2024-02-23T01:46:43;0.80;;;0.70;;
64619;SDS011;51029;51.058;13.826;2024-02-23T01:49:09;1.47;;;1.00;;
64619;SDS011;51029;51.058;13.826;2024-02-23T01:51:35;0.70;;;0.70;;
64619;SDS011;51029;51.058;13.826;2024-02-23T01:54:01;0.60;;;0.60;;
64619;SDS011;51029;51.058;13.826;2024-02-23T01:56:28;0.87;;;0.80;;
64619;SDS011;51029;51.058;13.826;2024-02-23T01:58:54;0.70;;;0.70;;
64619;SDS011;51029;51.058;13.826;2024-02-23T02:01:21;0.83;;;0.70;;
64619;SDS011;51029;51.058;13.826;2024-02-23T02:03:47;0.70;;;0.70;;
64619;SDS011;51029;51.058;13.826;2024-02-23T02:06:13;0.60;;;0.60;;
64619;SDS011;51029;51.058;13.826;2024-02-23T02:08:40;3.77;;;0.90;;
64619;SDS011;51029;51.058;13.826;2024-02-23T02:11:06;0.50;;;0.50;;
64619;SDS011;51029;51.058;13.826;2024-02-23T02:13:32;1.43;;;0.80;;
64619;SDS011;51029;51.058;13.826;2024-02-23T02:15:59;0.63;;;0.50;;
64619;SDS011;51029;51.058;13.826;2024-02-23T02:18:26;1.60;;;0.60;;
64619;SDS011;51029;51.058;13.826;2024-02-23T02:20:53;0.70;;;0.70;;
64619;SDS011;51029;51.058;13.826;2024-02-23T02:23:19;1.10;;;0.80;;
64619;SDS011;51029;51.058;13.826;2024-02-23T02:25:51;2.30;;;0.80;;
64619;SDS011;51029;51.058;13.826;2024-02-23T02:28:18;1.43;;;0.53;;
64619;SDS011;51029;51.058;13.826;2024-02-23T02:30:44;0.63;;;0.60;;
64619;SDS011;51029;51.058;13.826;2024-02-23T02:33:09;1.33;;;0.60;;
64619;SDS011;51029;51.058;13.826;2024-02-23T02:35:35;1.13;;;0.60;;
64619;SDS011;51029;51.058;13.826;2024-02-23T02:38:01;0.70;;;0.70;;
64619;SDS011;51029;51.058;13.826;2024-02-23T02:40:27;0.60;;;0.50;;
64619;SDS011;51029;51.058;13.826;2024-02-23T02:42:53;0.70;;;0.67;;
64619;SDS011;51029;51.058;13.826;2024-02-23T02:45:19;2.73;;;0.67;;
64619;SDS011;51029;51.058;13.826;2024-02-23T02:47:45;0.77;;;0.70;;
64619;SDS011;51029;51.058;13.826;2024-02-23T02:50:11;0.63;;;0.50;;
64619;SDS011;51029;51.058;13.826;2024-02-23T02:52:37;1.03;;;0.93;;
64619;SDS011;51029;51.058;13.826;2024-02-23T02:55:03;1.57;;;0.60;;
64619;SDS011;51029;51.058;13.826;2024-02-23T02:57:29;0.70;;;0.70;;
64619;SDS011;51029;51.058;13.826;2024-02-23T02:59:55;1.43;;;0.80;;
64619;SDS011;51029;51.058;13.826;2024-02-23T03:02:21;1.23;;;0.70;;
64619;SDS011;51029;51.058;13.826;2024-02-23T03:04:48;1.90;;;0.53;;
64619;SDS011;51029;51.058;13.826;2024-02-23T03:07:14;1.43;;;0.70;;
64619;SDS011;51029;51.058;13.826;2024-02-23T03:09:40;0.63;;;0.60;;
64619;SDS011;51029;51.058;13.826;2024-02-23T03:12:06;0.77;;;0.70;;
64619;SDS011;51029;51.058;13.826;2024-02-23T03:14:32;0.90;;;0.60;;
64619;SDS011;51029;51.058;13.826;2024-02-23T03:16:58;0.80;;;0.70;;
64619;SDS011;51029;51.058;13.826;2024-02-23T03:19:24;1.57;;;0.70;;
64619;SDS011;51029;51.058;13.826;2024-02-23T03:21:50;1.43;;;0.60;;
64619;SDS011;51029;51.058;13.826;2024-02-23T03:24:16;1.00;;;0.70;;
64619;SDS011;51029;51.058;13.826;2024-02-23T03:26:42;0.90;;;0.70;;
64619;SDS011;51029;51.058;13.826;2024-02-23T03:29:09;1.33;;;0.80;;
64619;SDS011;51029;51.058;13.826;2024-02-23T03:31:35;1.07;;;0.60;;
64619;SDS011;51029;51.058;13.826;2024-02-23T03:34:02;2.47;;;0.77;;
64619;SDS011;51029;51.058;13.826;2024-02-23T03:36:28;4.07;;;0.73;;
64619;SDS011;51029;51.058;13.826;2024-02-23T03:38:54;1.20;;;0.80;;
64619;SDS011;51029;51.058;13.826;2024-02-23T03:41:20;0.63;;;0.60;;
64619;SDS011;51029;51.058;13.826;2024-02-23T03:43:45;0.63;;;0.60;;
64619;SDS011;51029;51.058;13.826;2024-02-23T03:46:11;2.00;;;0.80;;
64619;SDS011;51029;51.058;13.826;2024-02-23T03:48:39;0.83;;;0.60;;
64619;SDS011;51029;51.058;13.826;2024-02-23T03:51:06;1.73;;;0.50;;
64619;SDS011;51029;51.058;13.826;2024-02-23T03:53:33;1.40;;;0.60;;
64619;SDS011;51029;51.058;13.826;2024-02-23T03:55:59;0.63;;;0.63;;
64619;SDS011;51029;51.058;13.826;2024-02-23T03:58:25;1.70;;;0.73;;
64619;SDS011;51029;51.058;13.826;2024-02-23T04:00:51;1.10;;;0.53;;
64619;SDS011;51029;51.058;13.826;2024-02-23T04:03:18;0.67;;;0.50;;
64619;SDS011;51029;51.058;13.826;2024-02-23T04:05:44;0.60;;;0.60;;
64619;SDS011;51029;51.058;13.826;2024-02-23T04:08:10;0.77;;;0.60;;
64619;SDS011;51029;51.058;13.826;2024-02-23T04:10:36;1.27;;;0.70;;
64619;SDS011;51029;51.058;13.826;2024-02-23T04:13:02;1.33;;;0.80;;
64619;SDS011;51029;51.058;13.826;2024-02-23T04:15:28;0.70;;;0.40;;
64619;SDS011;51029;51.058;13.826;2024-02-23T04:17:54;1.00;;;0.70;;
64619;SDS011;51029;51.058;13.826;2024-02-23T04:20:20;0.67;;;0.50;;
64619;SDS011;51029;51.058;13.826;2024-02-23T04:22:46;1.60;;;0.90;;
64619;SDS011;51029;51.058;13.826;2024-02-23T04:25:12;2.43;;;0.60;;
64619;SDS011;51029;51.058;13.826;2024-02-23T04:27:38;0.50;;;0.50;;
64619;SDS011;51029;51.058;13.826;2024-02-23T04:30:04;0.60;;;0.57;;
64619;SDS011;51029;51.058;13.826;2024-02-23T04:32:30;1.20;;;0.60;;
64619;SDS011;51029;51.058;13.826;2024-02-23T04:34:56;0.70;;;0.60;;
64619;SDS011;51029;51.058;13.826;2024-02-23T04:37:22;0.87;;;0.60;;
64619;SDS011;51029;51.058;13.826;2024-02-23T04:39:48;1.03;;;0.57;;
64619;SDS011;51029;51.058;13.826;2024-02-23T04:42:14;0.70;;;0.50;;
64619;SDS011;51029;51.058;13.826;2024-02-23T04:44:43;1.80;;;0.70;;
64619;SDS011;51029;51.058;13.826;2024-02-23T04:47:09;1.60;;;0.70;;
64619;SDS011;51029;51.058;13.826;2024-02-23T04:49:35;0.97;;;0.70;;
64619;SDS011;51029;51.058;13.826;2024-02-23T04:52:01;1.63;;;0.70;;
64619;SDS011;51029;51.058;13.826;2024-02-23T04:54:27;1.30;;;0.80;;
64619;SDS011;51029;51.058;13.826;2024-02-23T04:56:53;1.10;;;0.70;;
64619;SDS011;51029;51.058;13.826;2024-02-23T04:59:19;0.77;;;0.60;;
64619;SDS011;51029;51.058;13.826;2024-02-23T05:01:44;2.10;;;0.70;;
64619;SDS011;51029;51.058;13.826;2024-02-23T05:04:10;1.77;;;0.60;;
64619;SDS011;51029;51.058;13.826;2024-02-23T05:06:36;2.03;;;0.70;;
64619;SDS011;51029;51.058;13.826;2024-02-23T05:09:02;1.13;;;0.70;;
64619;SDS011;51029;51.058;13.826;2024-02-23T05:11:28;1.53;;;0.63;;
64619;SDS011;51029;51.058;13.826;2024-02-23T05:13:54;1.13;;;0.80;;
64619;SDS011;51029;51.058;13.826;2024-02-23T05:16:20;1.00;;;0.80;;
64619;SDS011;51029;51.058;13.826;2024-02-23T05:18:46;1.03;;;0.70;;
64619;SDS011;51029;51.058;13.826;2024-02-23T05:21:14;0.53;;;0.53;;
64619;SDS011;51029;51.058;13.826;2024-02-23T05:23:41;2.73;;;0.90;;
64619;SDS011;51029;51.058;13.826;2024-02-23T05:26:07;1.27;;;0.70;;
64619;SDS011;51029;51.058;13.826;2024-02-23T05:28:33;1.50;;;1.00;;
64619;SDS011;51029;51.058;13.826;2024-02-23T05:30:59;0.87;;;0.80;;
64619;SDS011;51029;51.058;13.826;2024-02-23T05:33:28;2.00;;;0.80;;
64619;SDS011;51029;51.058;13.826;2024-02-23T05:35:54;1.60;;;0.83;;
64619;SDS011;51029;51.058;13.826;2024-02-23T05:38:20;0.87;;;0.80;;
64619;SDS011;51029;51.058;13.826;2024-02-23T05:40:46;0.77;;;0.70;;
64619;SDS011;51029;51.058;13.826;2024-02-23T05:43:13;1.77;;;0.80;;
64619;SDS011;51029;51.058;13.826;2024-02-23T05:45:39;1.17;;;0.70;;
64619;SDS011;51029;51.058;13.826;2024-02-23T05:48:06;1.30;;;0.90;;
64619;SDS011;51029;51.058;13.826;2024-02-23T05:50:32;0.77;;;0.70;;
64619;SDS011;51029;51.058;13.826;2024-02-23T05:52:58;1.33;;;0.87;;
64619;SDS011;51029;51.058;13.826;2024-02-23T05:55:24;0.70;;;0.70;;
64619;SDS011;51029;51.058;13.826;2024-02-23T05:57:50;1.77;;;1.17;;
64619;SDS011;51029;51.058;13.826;2024-02-23T06:00:16;4.03;;;0.80;;
64619;SDS011;51029;51.058;13.826;2024-02-23T06:02:46;0.83;;;0.60;;
64619;SDS011;51029;51.058;13.826;2024-02-23T06:05:12;0.70;;;0.70;;
64619;SDS011;51029;51.058;13.826;2024-02-23T06:07:38;1.33;;;0.80;;
64619;SDS011;51029;51.058;13.826;2024-02-23T06:10:05;0.93;;;0.80;;
64619;SDS011;51029;51.058;13.826;2024-02-23T06:12:31;2.57;;;0.90;;
64619;SDS011;51029;51.058;13.826;2024-02-23T06:14:57;2.70;;;0.83;;
64619;SDS011;51029;51.058;13.826;2024-02-23T06:17:23;1.43;;;0.90;;
64619;SDS011;51029;51.058;13.826;2024-02-23T06:19:49;1.07;;;0.70;;
64619;SDS011;51029;51.058;13.826;2024-02-23T06:22:15;1.47;;;0.97;;
64619;SDS011;51029;51.058;13.826;2024-02-23T06:24:47;1.87;;;0.80;;
64619;SDS011;51029;51.058;13.826;2024-02-23T06:27:13;1.60;;;0.80;;
64619;SDS011;51029;51.058;13.826;2024-02-23T06:29:39;0.73;;;0.70;;
64619;SDS011;51029;51.058;13.826;2024-02-23T06:32:05;1.47;;;0.90;;
64619;SDS011;51029;51.058;13.826;2024-02-23T06:34:31;1.00;;;0.70;;
64619;SDS011;51029;51.058;13.826;2024-02-23T06:36:57;1.07;;;0.80;;
64619;SDS011;51029;51.058;13.826;2024-02-23T06:39:23;3.40;;;1.20;;
64619;SDS011;51029;51.058;13.826;2024-02-23T06:41:49;1.57;;;1.07;;
64619;SDS011;51029;51.058;13.826;2024-02-23T06:44:15;1.63;;;0.80;;
64619;SDS011;51029;51.058;13.826;2024-02-23T06:46:41;1.33;;;0.90;;
64619;SDS011;51029;51.058;13.826;2024-02-23T06:49:07;1.77;;;0.90;;
64619;SDS011;51029;51.058;13.826;2024-02-23T06:51:33;2.30;;;0.77;;
64619;SDS011;51029;51.058;13.826;2024-02-23T06:53:59;1.33;;;0.80;;
64619;SDS011;51029;51.058;13.826;2024-02-23T06:56:25;1.60;;;0.90;;
64619;SDS011;51029;51.058;13.826;2024-02-23T06:58:51;0.87;;;0.80;;
64619;SDS011;51029;51.058;13.826;2024-02-23T07:01:17;2.97;;;0.97;;
64619;SDS011;51029;51.058;13.826;2024-02-23T07:03:43;1.57;;;0.80;;
64619;SDS011;51029;51.058;13.826;2024-02-23T07:06:10;1.40;;;0.70;;
64619;SDS011;51029;51.058;13.826;2024-02-23T07:08:36;0.93;;;0.80;;
64619;SDS011;51029;51.058;13.826;2024-02-23T07:11:02;1.83;;;1.00;;
64619;SDS011;51029;51.058;13.826;2024-02-23T07:13:28;0.70;;;0.70;;
64619;SDS011;51029;51.058;13.826;2024-02-23T07:15:55;4.63;;;0.90;;
64619;SDS011;51029;51.058;13.826;2024-02-23T07:18:21;2.43;;;0.90;;
64619;SDS011;51029;51.058;13.826;2024-02-23T07:20:47;1.00;;;0.80;;
64619;SDS011;51029;51.058;13.826;2024-02-23T07:23:13;1.53;;;0.80;;
64619;SDS011;51029;51.058;13.826;2024-02-23T07:25:41;1.23;;;0.70;;
64619;SDS011;51029;51.058;13.826;2024-02-23T07:28:07;1.73;;;0.67;;
64619;SDS011;51029;51.058;13.826;2024-02-23T07:30:33;1.17;;;0.70;;
64619;SDS011;51029;51.058;13.826;2024-02-23T07:33:02;2.70;;;0.80;;
64619;SDS011;51029;51.058;13.826;2024-02-23T07:35:28;2.27;;;0.80;;
64619;SDS011;51029;51.058;13.826;2024-02-23T07:37:55;0.70;;;0.70;;
64619;SDS011;51029;51.058;13.826;2024-02-23T07:40:21;1.00;;;0.90;;
64619;SDS011;51029;51.058;13.826;2024-02-23T07:42:47;2.03;;;0.90;;
64619;SDS011;51029;51.058;13.826;2024-02-23T07:45:13;2.87;;;1.00;;
64619;SDS011;51029;51.058;13.826;2024-02-23T07:47:38;1.37;;;0.80;;
64619;SDS011;51029;51.058;13.826;2024-02-23T07:50:05;2.67;;;0.90;;
64619;SDS011;51029;51.058;13.826;2024-02-23T07:52:31;1.73;;;0.80;;
64619;SDS011;51029;51.058;13.826;2024-02-23T07:54:57;2.90;;;0.87;;
64619;SDS011;51029;51.058;13.826;2024-02-23T07:57:23;2.27;;;1.20;;
64619;SDS011;51029;51.058;13.826;2024-02-23T07:59:49;1.00;;;0.90;;
64619;SDS011;51029;51.058;13.826;2024-02-23T08:02:15;1.37;;;0.90;;
64619;SDS011;51029;51.058;13.826;2024-02-23T08:04:41;1.33;;;0.93;;
64619;SDS011;51029;51.058;13.826;2024-02-23T08:07:07;1.73;;;1.00;;
64619;SDS011;51029;51.058;13.826;2024-02-23T08:09:33;1.77;;;1.00;;
64619;SDS011;51029;51.058;13.826;2024-02-23T08:11:59;1.03;;;0.80;;
64619;SDS011;51029;51.058;13.826;2024-02-23T08:14:25;1.90;;;1.00;;
64619;SDS011;51029;51.058;13.826;2024-02-23T08:16:51;1.80;;;0.90;;
64619;SDS011;51029;51.058;13.826;2024-02-23T08:19:17;2.23;;;1.00;;
64619;SDS011;51029;51.058;13.826;2024-02-23T08:21:43;0.80;;;0.73;;
64619;SDS011;51029;51.058;13.826;2024-02-23T08:24:09;1.57;;;0.90;;
64619;SDS011;51029;51.058;13.826;2024-02-23T08:26:35;1.63;;;0.83;;
64619;SDS011;51029;51.058;13.826;2024-02-23T08:29:03;1.30;;;0.70;;
64619;SDS011;51029;51.058;13.826;2024-02-23T08:31:29;1.20;;;0.80;;
64619;SDS011;51029;51.058;13.826;2024-02-23T08:33:55;1.60;;;0.90;;
64619;SDS011;51029;51.058;13.826;2024-02-23T08:36:21;1.73;;;1.10;;
64619;SDS011;51029;51.058;13.826;2024-02-23T08:38:47;1.50;;;0.90;;
64619;SDS011;51029;51.058;13.826;2024-02-23T08:41:13;2.03;;;0.90;;
64619;SDS011;51029;51.058;13.826;2024-02-23T08:43:39;2.63;;;1.10;;
64619;SDS011;51029;51.058;13.826;2024-02-23T08:46:05;1.97;;;1.07;;
64619;SDS011;51029;51.058;13.826;2024-02-23T08:48:31;0.97;;;0.83;;
64619;SDS011;51029;51.058;13.826;2024-02-23T08:50:57;2.93;;;1.10;;
64619;SDS011;51029;51.058;13.826;2024-02-23T08:53:23;1.37;;;0.90;;
64619;SDS011;51029;51.058;13.826;2024-02-23T08:55:49;1.27;;;1.00;;
64619;SDS011;51029;51.058;13.826;2024-02-23T08:58:15;1.80;;;1.00;;
64619;SDS011;51029;51.058;13.826;2024-02-23T09:00:41;1.60;;;1.00;;
64619;SDS011;51029;51.058;13.826;2024-02-23T09:03:07;3.47;;;0.87;;
64619;SDS011;51029;51.058;13.826;2024-02-23T09:05:33;2.77;;;1.00;;
64619;SDS011;51029;51.058;13.826;2024-02-23T09:07:59;3.10;;;1.10;;
64619;SDS011;51029;51.058;13.826;2024-02-23T09:10:25;1.40;;;0.80;;
64619;SDS011;51029;51.058;13.826;2024-02-23T09:12:50;2.20;;;1.03;;
64619;SDS011;51029;51.058;13.826;2024-02-23T09:15:16;1.57;;;0.70;;
64619;SDS011;51029;51.058;13.826;2024-02-23T09:17:42;1.20;;;0.67;;
64619;SDS011;51029;51.058;13.826;2024-02-23T09:20:08;2.47;;;0.90;;
64619;SDS011;51029;51.058;13.826;2024-02-23T09:22:34;1.50;;;0.90;;
64619;SDS011;51029;51.058;13.826;2024-02-23T09:25:01;2.33;;;1.00;;
64619;SDS011;51029;51.058;13.826;2024-02-23T09:27:27;3.43;;;1.10;;
64619;SDS011;51029;51.058;13.826;2024-02-23T09:29:53;2.77;;;1.00;;
64619;SDS011;51029;51.058;13.826;2024-02-23T09:32:19;1.63;;;0.80;;
64619;SDS011;51029;51.058;13.826;2024-02-23T09:34:45;2.23;;;0.93;;
64619;SDS011;51029;51.058;13.826;2024-02-23T09:37:11;1.53;;;0.90;;
64619;SDS011;51029;51.058;13.826;2024-02-23T09:39:37;1.57;;;0.90;;
64619;SDS011;51029;51.058;13.826;2024-02-23T09:42:03;2.50;;;0.90;;
64619;SDS011;51029;51.058;13.826;2024-02-23T09:44:33;2.27;;;0.90;;
64619;SDS011;51029;51.058;13.826;2024-02-23T09:47:00;1.40;;;0.80;;
64619;SDS011;51029;51.058;13.826;2024-02-23T09:49:26;1.13;;;1.03;;
64619;SDS011;51029;51.058;13.826;2024-02-23T09:51:52;1.60;;;0.90;;
64619;SDS011;51029;51.058;13.826;2024-02-23T09:54:19;1.27;;;0.90;;
64619;SDS011;51029;51.058;13.826;2024-02-23T09:56:45;2.43;;;1.10;;
64619;SDS011;51029;51.058;13.826;2024-02-23T09:59:11;1.23;;;0.90;;
64619;SDS011;51029;51.058;13.826;2024-02-23T10:01:37;3.37;;;0.80;;
64619;SDS011;51029;51.058;13.826;2024-02-23T10:04:03;2.90;;;0.90;;
64619;SDS011;51029;51.058;13.826;2024-02-23T10:06:31;3.17;;;1.00;;
64619;SDS011;51029;51.058;13.826;2024-02-23T10:08:57;1.90;;;0.97;;
64619;SDS011;51029;51.058;13.826;2024-02-23T10:11:24;1.90;;;0.97;;
64619;SDS011;51029;51.058;13.826;2024-02-23T10:13:53;4.23;;;1.10;;
64619;SDS011;51029;51.058;13.826;2024-02-23T10:16:20;2.90;;;1.10;;
64619;SDS011;51029;51.058;13.826;2024-02-23T10:18:46;3.63;;;1.00;;
64619;SDS011;51029;51.058;13.826;2024-02-23T10:21:15;1.37;;;0.90;;
64619;SDS011;51029;51.058;13.826;2024-02-23T10:23:41;1.20;;;0.87;;
64619;SDS011;51029;51.058;13.826;2024-02-23T10:26:08;1.17;;;0.80;;
64619;SDS011;51029;51.058;13.826;2024-02-23T10:28:34;1.00;;;0.73;;
64619;SDS011;51029;51.058;13.826;2024-02-23T10:31:00;2.53;;;1.07;;
64619;SDS011;51029;51.058;13.826;2024-02-23T10:33:26;1.67;;;0.70;;
64619;SDS011;51029;51.058;13.826;2024-02-23T10:35:56;1.13;;;0.90;;
64619;SDS011;51029;51.058;13.826;2024-02-23T10:38:28;2.50;;;0.83;;
64619;SDS011;51029;51.058;13.826;2024-02-23T10:40:57;2.03;;;0.80;;
64619;SDS011;51029;51.058;13.826;2024-02-23T10:43:29;1.13;;;0.80;;
64619;SDS011;51029;51.058;13.826;2024-02-23T10:45:56;1.83;;;0.80;;
64619;SDS011;51029;51.058;13.826;2024-02-23T10:48:23;1.00;;;0.60;;
64619;SDS011;51029;51.058;13.826;2024-02-23T10:50:49;1.30;;;0.80;;
64619;SDS011;51029;51.058;13.826;2024-02-23T10:53:15;2.00;;;0.90;;
64619;SDS011;51029;51.058;13.826;2024-02-23T10:55:42;1.67;;;0.90;;
64619;SDS011;51029;51.058;13.826;2024-02-23T10:58:10;1.43;;;0.90;;
64619;SDS011;51029;51.058;13.826;2024-02-23T11:00:37;2.37;;;0.90;;
64619;SDS011;51029;51.058;13.826;2024-02-23T11:03:04;1.80;;;0.90;;
64619;SDS011;51029;51.058;13.826;2024-02-23T11:05:31;1.57;;;0.90;;
64619;SDS011;51029;51.058;13.826;2024-02-23T11:07:58;1.63;;;0.90;;
64619;SDS011;51029;51.058;13.826;2024-02-23T11:10:24;2.93;;;1.00;;
64619;SDS011;51029;51.058;13.826;2024-02-23T11:12:59;2.17;;;0.73;;
64619;SDS011;51029;51.058;13.826;2024-02-23T11:15:25;2.13;;;0.90;;
64619;SDS011;51029;51.058;13.826;2024-02-23T11:17:52;2.30;;;0.90;;
64619;SDS011;51029;51.058;13.826;2024-02-23T11:20:18;1.40;;;0.80;;
64619;SDS011;51029;51.058;13.826;2024-02-23T11:22:45;1.63;;;0.80;;
64619;SDS011;51029;51.058;13.826;2024-02-23T11:25:18;1.17;;;0.90;;
64619;SDS011;51029;51.058;13.826;2024-02-23T11:27:45;1.97;;;0.90;;
64619;SDS011;51029;51.058;13.826;2024-02-23T11:30:16;1.20;;;1.07;;
64619;SDS011;51029;51.058;13.826;2024-02-23T11:32:45;1.00;;;0.80;;
64619;SDS011;51029;51.058;13.826;2024-02-23T11:35:13;1.13;;;0.77;;
64619;SDS011;51029;51.058;13.826;2024-02-23T11:37:52;3.00;;;0.90;;
64619;SDS011;51029;51.058;13.826;2024-02-23T11:40:24;1.00;;;0.80;;
64619;SDS011;51029;51.058;13.826;2024-02-23T11:42:50;1.20;;;0.80;;
64619;SDS011;51029;51.058;13.826;2024-02-23T11:45:17;1.40;;;0.80;;
64619;SDS011;51029;51.058;13.826;2024-02-23T11:47:43;1.90;;;0.90;;
64619;SDS011;51029;51.058;13.826;2024-02-23T11:50:09;1.23;;;0.73;;
64619;SDS011;51029;51.058;13.826;2024-02-23T11:52:38;1.93;;;0.80;;
64619;SDS011;51029;51.058;13.826;2024-02-23T11:55:04;1.90;;;0.80;;
64619;SDS011;51029;51.058;13.826;2024-02-23T11:57:32;1.43;;;0.90;;
64619;SDS011;51029;51.058;13.826;2024-02-23T11:59:57;0.90;;;0.80;;
64619;SDS011;51029;51.058;13.826;2024-02-23T12:02:24;1.17;;;0.70;;
64619;SDS011;51029;51.058;13.826;2024-02-23T12:04:50;0.77;;;0.70;;
64619;SDS011;51029;51.058;13.826;2024-02-23T12:07:15;0.80;;;0.80;;
64619;SDS011;51029;51.058;13.826;2024-02-23T12:09:42;2.10;;;0.77;;
64619;SDS011;51029;51.058;13.826;2024-02-23T12:12:08;2.47;;;0.93;;
64619;SDS011;51029;51.058;13.826;2024-02-23T12:14:37;1.03;;;0.93;;
64619;SDS011;51029;51.058;13.826;2024-02-23T12:17:03;2.47;;;1.00;;
64619;SDS011;51029;51.058;13.826;2024-02-23T12:19:30;0.70;;;0.70;;
64619;SDS011;51029;51.058;13.826;2024-02-23T12:22:00;2.20;;;0.80;;
64619;SDS011;51029;51.058;13.826;2024-02-23T12:24:26;1.33;;;0.80;;
64619;SDS011;51029;51.058;13.826;2024-02-23T12:26:56;1.83;;;0.80;;
64619;SDS011;51029;51.058;13.826;2024-02-23T12:29:22;1.17;;;0.80;;
64619;SDS011;51029;51.058;13.826;2024-02-23T12:31:48;1.73;;;0.70;;
64619;SDS011;51029;51.058;13.826;2024-02-23T12:34:14;2.87;;;0.70;;
64619;SDS011;51029;51.058;13.826;2024-02-23T12:36:40;1.20;;;0.70;;
64619;SDS011;51029;51.058;13.826;2024-02-23T12:39:06;0.90;;;0.60;;
64619;SDS011;51029;51.058;13.826;2024-02-23T12:41:32;1.70;;;0.90;;
64619;SDS011;51029;51.058;13.826;2024-02-23T12:43:58;1.03;;;0.60;;
64619;SDS011;51029;51.058;13.826;2024-02-23T12:46:24;1.10;;;0.60;;
64619;SDS011;51029;51.058;13.826;2024-02-23T12:48:50;1.73;;;0.80;;
64619;SDS011;51029;51.058;13.826;2024-02-23T12:51:16;2.37;;;1.00;;
64619;SDS011;51029;51.058;13.826;2024-02-23T12:53:42;1.27;;;0.70;;
64619;SDS011;51029;51.058;13.826;2024-02-23T12:56:12;0.70;;;0.70;;
64619;SDS011;51029;51.058;13.826;2024-02-23T12:58:39;2.30;;;0.83;;
64619;SDS011;51029;51.058;13.826;2024-02-23T13:01:05;1.50;;;0.70;;
64619;SDS011;51029;51.058;13.826;2024-02-23T13:03:32;0.90;;;0.60;;
64619;SDS011;51029;51.058;13.826;2024-02-23T13:05:58;1.20;;;0.67;;
64619;SDS011;51029;51.058;13.826;2024-02-23T13:08:24;2.40;;;0.90;;
64619;SDS011;51029;51.058;13.826;2024-02-23T13:10:50;1.67;;;0.80;;
64619;SDS011;51029;51.058;13.826;2024-02-23T13:13:16;0.90;;;0.73;;
64619;SDS011;51029;51.058;13.826;2024-02-23T13:15:43;1.43;;;0.70;;
64619;SDS011;51029;51.058;13.826;2024-02-23T13:18:09;1.37;;;0.70;;
64619;SDS011;51029;51.058;13.826;2024-02-23T13:20:35;1.93;;;0.90;;
64619;SDS011;51029;51.058;13.826;2024-02-23T13:23:01;1.63;;;0.80;;
64619;SDS011;51029;51.058;13.826;2024-02-23T13:25:27;1.00;;;0.70;;
64619;SDS011;51029;51.058;13.826;2024-02-23T13:27:53;1.47;;;0.70;;
64619;SDS011;51029;51.058;13.826;2024-02-23T13:30:19;2.10;;;0.90;;
64619;SDS011;51029;51.058;13.826;2024-02-23T13:32:45;1.70;;;0.80;;
64619;SDS011;51029;51.058;13.826;2024-02-23T13:35:11;1.00;;;0.63;;
64619;SDS011;51029;51.058;13.826;2024-02-23T13:37:39;1.70;;;0.80;;
64619;SDS011;51029;51.058;13.826;2024-02-23T13:40:05;3.03;;;1.03;;
64619;SDS011;51029;51.058;13.826;2024-02-23T13:42:31;1.13;;;0.80;;
64619;SDS011;51029;51.058;13.826;2024-02-23T13:44:57;1.30;;;0.87;;
64619;SDS011;51029;51.058;13.826;2024-02-23T13:47:23;1.80;;;0.73;;
64619;SDS011;51029;51.058;13.826;2024-02-23T13:49:48;1.03;;;0.70;;
64619;SDS011;51029;51.058;13.826;2024-02-23T13:52:14;1.30;;;0.80;;
64619;SDS011;51029;51.058;13.826;2024-02-23T13:54:40;1.50;;;0.70;;
64619;SDS011;51029;51.058;13.826;2024-02-23T13:57:07;0.97;;;0.87;;
64619;SDS011;51029;51.058;13.826;2024-02-23T13:59:33;1.70;;;0.80;;
64619;SDS011;51029;51.058;13.826;2024-02-23T14:01:59;1.00;;;0.80;;
64619;SDS011;51029;51.058;13.826;2024-02-23T14:04:25;2.50;;;0.90;;
64619;SDS011;51029;51.058;13.826;2024-02-23T14:06:51;2.13;;;0.97;;
64619;SDS011;51029;51.058;13.826;2024-02-23T14:09:17;1.43;;;0.80;;
64619;SDS011;51029;51.058;13.826;2024-02-23T14:11:43;1.60;;;0.90;;
64619;SDS011;51029;51.058;13.826;2024-02-23T14:14:10;1.80;;;0.80;;
64619;SDS011;51029;51.058;13.826;2024-02-23T14:16:36;1.60;;;1.03;;
64619;SDS011;51029;51.058;13.826;2024-02-23T14:19:02;3.13;;;1.00;;
64619;SDS011;51029;51.058;13.826;2024-02-23T14:21:28;1.50;;;1.00;;
64619;SDS011;51029;51.058;13.826;2024-02-23T14:23:54;2.20;;;1.20;;
64619;SDS011;51029;51.058;13.826;2024-02-23T14:26:20;2.00;;;0.90;;
64619;SDS011;51029;51.058;13.826;2024-02-23T14:28:46;1.47;;;0.83;;